createdAt,value
2023-01-20T00:01:23.699Z,99248.44
2023-01-20T00:03:50.631Z,99259.13
2023-01-20T00:06:17.027Z,99260.22
2023-01-20T00:08:43.419Z,99251.06
2023-01-20T00:11:12.323Z,99254.28
2023-01-20T00:13:39.207Z,99256.53
2023-01-20T00:16:07.705Z,99258.22
2023-01-20T00:18:35.061Z,99259.97
2023-01-20T00:21:10.171Z,99258.66
2023-01-20T00:23:37.122Z,99266.03
2023-01-20T00:26:05.786Z,99264.34
2023-01-20T00:28:32.892Z,99269.81
2023-01-20T00:30:59.765Z,99269.59
2023-01-20T00:33:26.229Z,99276.25
2023-01-20T00:35:52.610Z,99279.59
2023-01-20T00:38:19.098Z,99284.38
2023-01-20T00:40:53.497Z,99286.50
2023-01-20T00:43:19.983Z,99288.38
2023-01-20T00:45:46.418Z,99285.31
2023-01-20T00:48:12.774Z,99290.06
2023-01-20T00:50:39.130Z,99299.31
2023-01-20T00:53:05.543Z,99298.81
2023-01-20T00:55:31.909Z,99306.94
2023-01-20T00:57:58.303Z,99306.44
2023-01-20T01:00:24.758Z,99312.94
2023-01-20T01:02:53.041Z,99320.69
2023-01-20T01:05:21.977Z,99327.69
2023-01-20T01:07:48.518Z,99335.41
2023-01-20T01:10:15.560Z,99335.63
2023-01-20T01:12:44.225Z,99341.31
2023-01-20T01:15:11.381Z,99341.09
2023-01-20T01:17:38.039Z,99352.13
2023-01-20T01:20:05.063Z,99348.38
2023-01-20T01:22:32.658Z,99351.44
2023-01-20T01:24:59.102Z,99357.72
2023-01-20T01:27:28.276Z,99362.22
2023-01-20T01:29:55.596Z,99362.22
2023-01-20T01:32:22.937Z,99364.84
2023-01-20T01:34:49.458Z,99363.88
2023-01-20T01:37:16.008Z,99368.63
2023-01-20T01:39:42.436Z,99365.09
2023-01-20T01:42:13.202Z,99369.09
2023-01-20T01:45:11.805Z,99373.88
2023-01-20T01:47:46.013Z,99371.97
2023-01-20T01:50:17.012Z,99377.66
2023-01-20T01:52:46.505Z,99379.78
2023-01-20T01:55:16.006Z,99373.88
2023-01-20T01:57:42.706Z,99384.72
2023-01-20T02:00:09.723Z,99380.28
2023-01-20T02:02:36.343Z,99384.06
2023-01-20T02:05:03.121Z,99387.88
2023-01-20T02:07:33.259Z,99385.22
2023-01-20T02:10:00.959Z,99380.41
2023-01-20T02:12:28.500Z,99390.00
2023-01-20T02:14:59.460Z,99390.44
2023-01-20T02:17:31.277Z,99392.38
2023-01-20T02:20:29.593Z,99389.25
2023-01-20T02:23:08.113Z,99390.19
2023-01-20T02:25:58.837Z,99388.63
2023-01-20T02:28:37.368Z,99387.69
2023-01-20T02:31:25.077Z,99398.44
2023-01-20T02:34:04.886Z,99391.56
2023-01-20T02:36:43.721Z,99391.56
2023-01-20T02:39:27.331Z,99396.78
2023-01-20T02:42:02.708Z,99404.03
2023-01-20T02:44:40.719Z,99415.22
2023-01-20T02:47:17.000Z,99406.41
2023-01-20T02:49:55.356Z,99414.13
2023-01-20T02:52:25.867Z,99410.81
2023-01-20T02:54:55.337Z,99421.25
2023-01-20T02:57:29.446Z,99422.09
2023-01-20T02:59:59.843Z,99415.44
2023-01-20T03:02:30.931Z,99426.69
2023-01-20T03:05:23.251Z,99423.13
2023-01-20T03:07:52.862Z,99422.91
2023-01-20T03:10:24.588Z,99433.34
2023-01-20T03:12:58.911Z,99430.44
2023-01-20T03:15:35.560Z,99435.66
2023-01-20T03:18:02.160Z,99431.47
2023-01-20T03:20:28.701Z,99437.53
2023-01-20T03:22:55.087Z,99441.72
2023-01-20T03:25:22.647Z,99443.06
2023-01-20T03:27:51.380Z,99450.19
2023-01-20T03:30:18.274Z,99453.97
2023-01-20T03:32:47.744Z,99456.56
2023-01-20T03:35:17.832Z,99459.69
2023-01-20T03:37:44.867Z,99470.69
2023-01-20T03:40:12.899Z,99460.34
2023-01-20T03:42:45.504Z,99472.47
2023-01-20T03:45:44.802Z,99469.34
2023-01-20T03:48:31.369Z,99471.97
2023-01-20T03:51:14.966Z,99473.72
2023-01-20T03:54:01.080Z,99472.38
2023-01-20T03:56:35.357Z,99476.66
2023-01-20T03:59:03.530Z,99470.19
2023-01-20T04:01:38.159Z,99474.50
2023-01-20T04:04:09.047Z,99475.41
2023-01-20T04:06:37.150Z,99475.41
2023-01-20T04:09:11.962Z,99484.94
2023-01-20T04:11:38.424Z,99486.72
2023-01-20T04:14:04.988Z,99486.72
2023-01-20T04:16:31.362Z,99492.97
2023-01-20T04:18:57.790Z,99493.69
2023-01-20T04:21:42.040Z,99494.63
2023-01-20T04:24:16.333Z,99498.19
2023-01-20T04:26:42.710Z,99497.69
2023-01-20T04:29:12.009Z,99500.28
2023-01-20T04:31:40.027Z,99505.72
2023-01-20T04:34:07.203Z,99505.28
2023-01-20T04:36:33.786Z,99501.13
2023-01-20T04:39:00.208Z,99511.16
2023-01-20T04:41:26.709Z,99511.16
2023-01-20T04:43:53.183Z,99518.03
2023-01-20T04:46:19.723Z,99522.13
2023-01-20T04:48:46.312Z,99515.66
2023-01-20T04:51:13.587Z,99521.28
2023-01-20T04:53:39.991Z,99526.50
2023-01-20T04:56:12.274Z,99525.13
2023-01-20T04:58:39.523Z,99529.50
2023-01-20T05:01:06.358Z,99531.78
2023-01-20T05:03:33.014Z,99544.34
2023-01-20T05:05:59.388Z,99537.47
2023-01-20T05:08:25.808Z,99544.78
2023-01-20T05:10:52.196Z,99546.84
2023-01-20T05:13:18.707Z,99560.44
2023-01-20T05:15:45.205Z,99556.03
2023-01-20T05:18:11.573Z,99563.25
2023-01-20T05:20:37.952Z,99559.47
2023-01-20T05:23:04.362Z,99564.81
2023-01-20T05:25:30.712Z,99562.44
2023-01-20T05:27:58.643Z,99564.91
2023-01-20T05:30:25.058Z,99568.56
2023-01-20T05:32:52.107Z,99567.00
2023-01-20T05:35:18.679Z,99569.59
2023-01-20T05:37:45.071Z,99577.22
2023-01-20T05:40:12.390Z,99575.03
2023-01-20T05:42:39.012Z,99579.22
2023-01-20T05:45:06.130Z,99575.69
2023-01-20T05:47:32.589Z,99578.38
2023-01-20T05:49:58.997Z,99581.00
2023-01-20T05:52:25.378Z,99586.22
2023-01-20T05:54:51.800Z,99591.16
2023-01-20T05:57:18.364Z,99592.69
2023-01-20T05:59:47.371Z,99593.00
2023-01-20T06:02:15.908Z,99598.66
2023-01-20T06:04:42.254Z,99598.44
2023-01-20T06:07:08.649Z,99602.00
2023-01-20T06:09:35.084Z,99604.59
2023-01-20T06:12:01.654Z,99604.41
2023-01-20T06:14:28.057Z,99609.94
2023-01-20T06:16:54.440Z,99608.03
2023-01-20T06:19:20.949Z,99609.28
2023-01-20T06:21:47.757Z,99608.66
2023-01-20T06:24:14.206Z,99611.41
2023-01-20T06:26:40.566Z,99620.47
2023-01-20T06:29:06.928Z,99619.53
2023-01-20T06:31:33.554Z,99624.34
2023-01-20T06:34:00.160Z,99624.34
2023-01-20T06:36:26.665Z,99629.78
2023-01-20T06:38:53.747Z,99627.06
2023-01-20T06:41:20.916Z,99623.81
2023-01-20T06:43:47.839Z,99630.31
2023-01-20T06:46:16.165Z,99632.69
2023-01-20T06:48:43.780Z,99639.50
2023-01-20T06:51:13.391Z,99638.53
2023-01-20T06:53:40.337Z,99648.97
2023-01-20T06:56:07.622Z,99648.56
2023-01-20T06:58:34.177Z,99646.69
2023-01-20T07:01:21.763Z,99645.88
2023-01-20T07:03:48.282Z,99654.41
2023-01-20T07:06:24.800Z,99649.63
2023-01-20T07:08:51.242Z,99661.00
2023-01-20T07:11:17.623Z,99665.50
2023-01-20T07:13:44.085Z,99678.75
2023-01-20T07:16:13.163Z,99680.31
2023-01-20T07:18:41.989Z,99685.47
2023-01-20T07:21:11.746Z,99682.03
2023-01-20T07:23:38.094Z,99692.25
2023-01-20T07:26:07.080Z,99698.09
2023-01-20T07:28:34.641Z,99697.28
2023-01-20T07:31:21.126Z,99708.75
2023-01-20T07:33:47.736Z,99710.31
2023-01-20T07:36:15.797Z,99719.72
2023-01-20T07:38:42.455Z,99729.00
2023-01-20T07:41:15.797Z,99723.28
2023-01-20T07:43:43.785Z,99730.47
2023-01-20T07:46:11.341Z,99732.78
2023-01-20T07:48:38.078Z,99743.41
2023-01-20T07:51:07.468Z,99738.50
2023-01-20T07:53:46.493Z,99740.81
2023-01-20T07:56:16.038Z,99748.47
2023-01-20T07:58:45.147Z,99747.66
2023-01-20T08:01:11.515Z,99751.72
2023-01-20T08:03:38.036Z,99755.50
2023-01-20T08:06:05.643Z,99758.69
2023-01-20T08:08:32.916Z,99765.41
2023-01-20T08:11:01.454Z,99770.00
2023-01-20T08:13:32.099Z,99765.59
2023-01-20T08:16:03.811Z,99762.25
2023-01-20T08:18:30.883Z,99771.88
2023-01-20T08:20:57.351Z,99774.63
2023-01-20T08:23:24.011Z,99771.25
2023-01-20T08:25:51.570Z,99779.31
2023-01-20T08:28:18.169Z,99785.38
2023-01-20T08:30:44.627Z,99785.69
2023-01-20T08:33:11.056Z,99784.53
2023-01-20T08:35:37.616Z,99796.94
2023-01-20T08:38:03.983Z,99804.59
2023-01-20T08:40:30.403Z,99798.81
2023-01-20T08:42:56.992Z,99809.38
2023-01-20T08:45:23.875Z,99818.69
2023-01-20T08:47:53.020Z,99807.81
2023-01-20T08:50:22.461Z,99820.28
2023-01-20T08:52:48.894Z,99820.19
2023-01-20T08:55:15.679Z,99825.00
2023-01-20T08:57:42.275Z,99819.66
2023-01-20T09:00:10.999Z,99823.94
2023-01-20T09:02:37.973Z,99816.63
2023-01-20T09:05:05.088Z,99825.41
2023-01-20T09:07:31.625Z,99827.63
2023-01-20T09:09:57.989Z,99826.25
2023-01-20T09:12:24.382Z,99837.19
2023-01-20T09:14:50.764Z,99839.59
2023-01-20T09:17:17.236Z,99836.72
2023-01-20T09:19:43.652Z,99850.81
2023-01-20T09:22:10.181Z,99853.22
2023-01-20T09:24:36.523Z,99848.41
2023-01-20T09:27:02.895Z,99852.16
2023-01-20T09:29:29.274Z,99855.28
2023-01-20T09:31:59.073Z,99855.94
2023-01-20T09:34:27.731Z,99856.38
2023-01-20T09:37:19.005Z,99866.81
2023-01-20T09:40:04.335Z,99862.19
2023-01-20T09:43:26.104Z,99863.47
2023-01-20T09:46:05.977Z,99855.84
2023-01-20T09:49:03.069Z,99868.69
2023-01-20T09:52:00.865Z,99863.25
2023-01-20T09:54:34.900Z,99862.00
2023-01-20T09:57:02.536Z,99862.22
2023-01-20T09:59:40.616Z,99858.56
2023-01-20T10:02:17.635Z,99859.19
2023-01-20T10:04:51.739Z,99861.59
2023-01-20T10:07:29.055Z,99862.44
2023-01-20T10:10:14.665Z,99861.19
2023-01-20T10:12:47.458Z,99864.63
2023-01-20T10:15:39.987Z,99866.00
2023-01-20T10:18:16.757Z,99866.81
2023-01-20T10:20:53.779Z,99863.06
2023-01-20T10:23:27.928Z,99866.00
2023-01-20T10:26:07.844Z,99865.25
2023-01-20T10:28:40.452Z,99873.09
2023-01-20T10:31:07.089Z,99876.66
2023-01-20T10:33:55.114Z,99882.94
2023-01-20T10:36:26.962Z,99876.88
2023-01-20T10:39:19.507Z,99871.03
2023-01-20T10:41:51.568Z,99875.63
2023-01-20T10:44:18.103Z,99877.06
2023-01-20T10:47:08.575Z,99884.09
2023-01-20T10:49:53.651Z,99881.25
2023-01-20T10:52:33.446Z,99873.50
2023-01-20T10:55:26.515Z,99877.63
2023-01-20T10:58:08.934Z,99882.63
2023-01-20T11:00:35.770Z,99886.72
2023-01-20T11:03:03.434Z,99892.34
2023-01-20T11:05:32.287Z,99901.50
2023-01-20T11:08:00.127Z,99900.38
2023-01-20T11:10:29.233Z,99902.88
2023-01-20T11:12:59.588Z,99903.97
2023-01-20T11:15:32.551Z,99899.22
2023-01-20T11:18:15.149Z,99898.19
2023-01-20T11:20:50.889Z,99907.69
2023-01-20T11:23:38.370Z,99911.97
2023-01-20T11:26:30.292Z,99910.31
2023-01-20T11:29:01.297Z,99911.19
2023-01-20T11:31:51.772Z,99913.88
2023-01-20T11:34:31.236Z,99915.75
2023-01-20T11:37:06.691Z,99916.34
2023-01-20T11:39:43.950Z,99922.03
2023-01-20T11:42:23.559Z,99922.41
2023-01-20T11:44:52.580Z,99926.66
2023-01-20T11:47:28.795Z,99932.28
2023-01-20T11:50:04.076Z,99933.75
2023-01-20T11:52:38.152Z,99933.97
2023-01-20T11:55:18.363Z,99936.03
2023-01-20T11:57:46.951Z,99945.66
2023-01-20T12:00:19.104Z,99937.53
2023-01-20T12:03:16.765Z,99954.25
2023-01-20T12:05:53.973Z,99954.53
2023-01-20T12:08:41.729Z,99949.41
2023-01-20T12:11:10.162Z,99961.13
2023-01-20T12:14:03.149Z,99957.88
2023-01-20T12:16:32.673Z,99954.16
2023-01-20T12:19:04.736Z,99959.00
2023-01-20T12:21:38.556Z,99966.31
2023-01-20T12:24:12.158Z,99969.47
2023-01-20T12:26:39.289Z,99962.38
2023-01-20T12:29:12.974Z,99969.66
2023-01-20T12:31:39.672Z,99978.25
2023-01-20T12:34:12.747Z,99978.16
2023-01-20T12:36:57.960Z,99977.22
2023-01-20T12:39:47.388Z,99974.59
2023-01-20T12:42:35.243Z,99975.38
2023-01-20T12:45:38.568Z,99980.69
2023-01-20T12:48:31.634Z,99987.50
2023-01-20T12:51:14.533Z,99992.50
2023-01-20T12:54:10.027Z,99992.00
2023-01-20T12:56:55.311Z,99997.97
2023-01-20T12:59:41.040Z,100004.88
2023-01-20T13:02:41.703Z,99997.53
2023-01-20T13:05:28.859Z,100000.38
2023-01-20T13:08:08.071Z,100005.28
2023-01-20T13:10:51.198Z,100007.75
2023-01-20T13:13:35.538Z,100010.31
2023-01-20T13:16:17.000Z,100007.94
2023-01-20T13:19:03.910Z,100012.22
2023-01-20T13:21:32.404Z,100010.72
2023-01-20T13:24:01.501Z,100014.00
2023-01-20T13:26:29.728Z,100017.25
2023-01-20T13:28:57.861Z,100016.38
2023-01-20T13:31:43.269Z,100018.50
2023-01-20T13:34:21.908Z,100023.44
2023-01-20T13:37:03.436Z,100022.78
2023-01-20T13:39:29.823Z,100029.44
2023-01-20T13:41:56.264Z,100028.09
2023-01-20T13:44:36.372Z,100030.16
2023-01-20T13:47:04.495Z,100028.09
2023-01-20T13:49:47.941Z,100033.25
2023-01-20T13:52:14.560Z,100037.66
2023-01-20T13:54:43.187Z,100036.31
2023-01-20T13:57:33.396Z,100033.50
2023-01-20T13:59:59.799Z,100045.09
2023-01-20T14:02:28.978Z,100036.25
2023-01-20T14:04:56.220Z,100031.53
2023-01-20T14:07:27.784Z,100040.91
2023-01-20T14:09:56.609Z,100048.44
2023-01-20T14:12:23.034Z,100043.03
2023-01-20T14:14:50.314Z,100054.88
2023-01-20T14:17:19.152Z,100055.06
2023-01-20T14:19:50.580Z,100043.03
2023-01-20T14:22:30.014Z,100053.22
2023-01-20T14:24:57.378Z,100062.84
2023-01-20T14:27:28.159Z,100056.09
2023-01-20T14:29:56.515Z,100068.91
2023-01-20T14:32:30.953Z,100067.41
2023-01-20T14:34:58.107Z,100077.22
2023-01-20T14:37:32.910Z,100081.78
2023-01-20T14:40:23.679Z,100077.22
2023-01-20T14:42:59.089Z,100083.38
2023-01-20T14:45:32.650Z,100087.28
2023-01-20T14:48:01.771Z,100091.97
2023-01-20T14:50:29.224Z,100095.59
2023-01-20T14:52:56.235Z,100096.25
2023-01-20T14:55:48.182Z,100095.31
2023-01-20T14:58:16.992Z,100100.34
2023-01-20T15:00:46.139Z,100100.91
2023-01-20T15:03:25.003Z,100114.53
2023-01-20T15:05:59.111Z,100118.66
2023-01-20T15:08:26.483Z,100117.97
2023-01-20T15:11:24.400Z,100132.63
2023-01-20T15:14:01.440Z,100136.38
2023-01-20T15:16:37.000Z,100142.88
2023-01-20T15:19:20.000Z,100140.47
2023-01-20T15:21:49.353Z,100138.22
2023-01-20T15:24:18.407Z,100144.78
2023-01-20T15:26:46.659Z,100148.88
2023-01-20T15:29:24.880Z,100149.06
2023-01-20T15:31:52.419Z,100145.13
2023-01-20T15:34:19.826Z,100152.09
2023-01-20T15:36:47.047Z,100156.25
2023-01-20T15:39:19.118Z,100160.97
2023-01-20T15:41:47.504Z,100161.34
2023-01-20T15:44:14.934Z,100165.28
2023-01-20T15:46:41.521Z,100173.19
2023-01-20T15:49:12.036Z,100171.06
2023-01-20T15:51:39.032Z,100166.56
2023-01-20T15:54:07.395Z,100173.97
2023-01-20T15:56:35.180Z,100176.66
2023-01-20T15:59:02.198Z,100177.03
2023-01-20T16:01:29.416Z,100180.94
2023-01-20T16:03:57.232Z,100182.44
2023-01-20T16:06:30.596Z,100185.63
2023-01-20T16:08:57.809Z,100188.59
2023-01-20T16:11:24.270Z,100189.72
2023-01-20T16:13:50.813Z,100192.88
2023-01-20T16:16:19.466Z,100190.28
2023-01-20T16:18:46.374Z,100192.41
2023-01-20T16:21:18.728Z,100196.97
2023-01-20T16:23:45.483Z,100205.41
2023-01-20T16:26:18.574Z,100207.25
2023-01-20T16:28:45.076Z,100209.97
2023-01-20T16:31:13.279Z,100212.28
2023-01-20T16:33:39.781Z,100209.75
2023-01-20T16:36:11.738Z,100212.00
2023-01-20T16:38:38.339Z,100215.50
2023-01-20T16:41:13.023Z,100225.13
2023-01-20T16:43:43.125Z,100224.94
2023-01-20T16:46:21.286Z,100235.03
2023-01-20T16:48:48.089Z,100241.44
2023-01-20T16:51:19.418Z,100246.84
2023-01-20T16:53:46.236Z,100248.09
2023-01-20T16:56:18.380Z,100253.66
2023-01-20T16:58:47.626Z,100261.34
2023-01-20T17:01:14.307Z,100263.22
2023-01-20T17:03:43.745Z,100260.50
2023-01-20T17:06:20.991Z,100267.50
2023-01-20T17:08:52.192Z,100271.41
2023-01-20T17:11:26.609Z,100279.06
2023-01-20T17:13:53.784Z,100273.59
2023-01-20T17:16:20.628Z,100276.59
2023-01-20T17:18:51.491Z,100275.84
2023-01-20T17:21:20.711Z,100285.13
2023-01-20T17:23:59.526Z,100287.84
2023-01-20T17:26:28.413Z,100284.75
2023-01-20T17:28:56.587Z,100297.63
2023-01-20T17:31:24.028Z,100294.56
2023-01-20T17:33:51.241Z,100300.78
2023-01-20T17:36:18.056Z,100287.19
2023-01-20T17:38:44.870Z,100296.94
2023-01-20T17:41:12.592Z,100301.13
2023-01-20T17:43:42.985Z,100302.75
2023-01-20T17:46:17.467Z,100302.50
2023-01-20T17:48:44.854Z,100314.63
2023-01-20T17:51:16.581Z,100317.31
2023-01-20T17:53:43.491Z,100313.28
2023-01-20T17:56:13.452Z,100318.31
2023-01-20T17:58:42.140Z,100320.75
2023-01-20T18:01:15.798Z,100317.31
2023-01-20T18:03:43.455Z,100322.53
2023-01-20T18:06:15.331Z,100315.31
2023-01-20T18:08:42.645Z,100322.53
2023-01-20T18:11:12.600Z,100327.75
2023-01-20T18:13:39.120Z,100331.38
2023-01-20T18:16:11.565Z,100334.81
2023-01-20T18:18:39.694Z,100333.97
2023-01-20T18:21:10.075Z,100333.97
2023-01-20T18:23:38.984Z,100340.03
2023-01-20T18:26:06.321Z,100338.69
2023-01-20T18:28:34.099Z,100344.19
2023-01-20T18:31:03.047Z,100343.41
2023-01-20T18:33:29.501Z,100351.25
2023-01-20T18:35:56.114Z,100352.19
2023-01-20T18:38:22.610Z,100349.81
2023-01-20T18:40:49.312Z,100347.47
2023-01-20T18:43:15.704Z,100345.69
2023-01-20T18:45:42.062Z,100343.00
2023-01-20T18:48:09.820Z,100349.97
2023-01-20T18:50:36.212Z,100346.97
2023-01-20T18:53:02.568Z,100351.16
2023-01-20T18:55:31.576Z,100359.75
2023-01-20T18:57:58.122Z,100363.97
2023-01-20T19:00:24.625Z,100369.25
2023-01-20T19:02:52.164Z,100368.34
2023-01-20T19:05:19.339Z,100366.81
2023-01-20T19:07:51.477Z,100375.56
2023-01-20T19:10:18.515Z,100367.75
2023-01-20T19:12:44.933Z,100375.91
2023-01-20T19:15:11.287Z,100380.63
2023-01-20T19:17:37.660Z,100374.91
2023-01-20T19:20:04.799Z,100378.41
2023-01-20T19:22:31.147Z,100375.91
2023-01-20T19:24:57.740Z,100374.38
2023-01-20T19:27:26.328Z,100369.03
2023-01-20T19:29:53.709Z,100366.47
2023-01-20T19:32:20.379Z,100382.13
2023-01-20T19:34:47.108Z,100381.91
2023-01-20T19:37:13.488Z,100380.78
2023-01-20T19:39:39.860Z,100386.34
2023-01-20T19:42:06.237Z,100388.84
2023-01-20T19:44:32.864Z,100379.91
2023-01-20T19:47:04.094Z,100382.63
2023-01-20T19:49:30.963Z,100383.78
2023-01-20T19:51:57.566Z,100392.50
2023-01-20T19:54:28.387Z,100388.69
2023-01-20T19:56:54.999Z,100403.50
2023-01-20T19:59:21.471Z,100399.75
2023-01-20T20:01:47.947Z,100410.19
2023-01-20T20:04:14.343Z,100404.97
2023-01-20T20:06:45.672Z,100408.69
2023-01-20T20:09:18.689Z,100410.03
2023-01-20T20:11:46.001Z,100406.81
2023-01-20T20:14:14.850Z,100409.88
2023-01-20T20:16:41.470Z,100409.34
2023-01-20T20:19:11.232Z,100426.16
2023-01-20T20:21:38.117Z,100428.44
2023-01-20T20:24:07.798Z,100423.63
2023-01-20T20:26:36.110Z,100429.53
2023-01-20T20:29:04.692Z,100429.72
2023-01-20T20:31:31.292Z,100430.59
2023-01-20T20:33:58.949Z,100429.22
2023-01-20T20:36:28.299Z,100437.44
2023-01-20T20:38:55.273Z,100442.66
2023-01-20T20:41:22.381Z,100443.50
2023-01-20T20:43:48.838Z,100456.63
2023-01-20T20:46:16.571Z,100453.09
2023-01-20T20:48:43.244Z,100451.41
2023-01-20T20:51:14.889Z,100459.44
2023-01-20T20:53:42.462Z,100452.56
2023-01-20T20:56:13.698Z,100453.56
2023-01-20T20:58:55.555Z,100456.94
2023-01-20T21:01:26.302Z,100464.16
2023-01-20T21:03:52.785Z,100470.88
2023-01-20T21:06:19.364Z,100468.69
2023-01-20T21:08:46.749Z,100468.69
2023-01-20T21:11:13.315Z,100476.34
2023-01-20T21:13:40.484Z,100470.34
2023-01-20T21:16:10.360Z,100478.03
2023-01-20T21:18:37.319Z,100473.13
2023-01-20T21:21:05.657Z,100478.13
2023-01-20T21:23:32.441Z,100478.63
2023-01-20T21:26:08.098Z,100483.22
2023-01-20T21:28:39.601Z,100480.78
2023-01-20T21:31:07.845Z,100473.25
2023-01-20T21:33:35.699Z,100481.63
2023-01-20T21:36:03.375Z,100484.16
2023-01-20T21:38:31.324Z,100499.09
2023-01-20T21:41:00.587Z,100491.38
2023-01-20T21:43:52.638Z,100499.81
2023-01-20T21:46:19.548Z,100494.97
2023-01-20T21:49:04.772Z,100499.34
2023-01-20T21:51:51.235Z,100498.56
2023-01-20T21:54:17.939Z,100510.69
2023-01-20T21:56:44.785Z,100503.25
2023-01-20T21:59:11.257Z,100497.50
2023-01-20T22:01:38.032Z,100508.84
2023-01-20T22:04:04.564Z,100510.91
2023-01-20T22:06:31.226Z,100510.84
2023-01-20T22:09:00.567Z,100511.28
2023-01-20T22:11:27.372Z,100519.13
2023-01-20T22:13:55.313Z,100518.97
2023-01-20T22:16:22.481Z,100525.41
2023-01-20T22:18:49.640Z,100529.00
2023-01-20T22:21:16.472Z,100522.13
2023-01-20T22:23:43.056Z,100524.94
2023-01-20T22:26:09.675Z,100530.00
2023-01-20T22:28:39.911Z,100530.84
2023-01-20T22:31:08.437Z,100536.44
2023-01-20T22:33:34.935Z,100532.84
2023-01-20T22:36:01.717Z,100528.78
2023-01-20T22:38:28.176Z,100527.78
2023-01-20T22:40:54.661Z,100543.63
2023-01-20T22:43:21.644Z,100528.31
2023-01-20T22:45:48.512Z,100535.59
2023-01-20T22:48:15.029Z,100522.34
2023-01-20T22:50:41.415Z,100532.78
2023-01-20T22:53:07.914Z,100530.84
2023-01-20T22:55:34.453Z,100521.44
2023-01-20T22:58:01.024Z,100532.22
2023-01-20T23:00:27.397Z,100536.44
2023-01-20T23:02:54.117Z,100528.09
2023-01-20T23:05:20.504Z,100538.13
2023-01-20T23:07:46.960Z,100535.13
2023-01-20T23:10:33.552Z,100535.66
2023-01-20T23:13:00.203Z,100537.78
2023-01-20T23:15:26.619Z,100530.91
2023-01-20T23:17:53.644Z,100542.31
2023-01-20T23:20:20.031Z,100532.13
2023-01-20T23:22:46.416Z,100542.31
2023-01-20T23:25:12.822Z,100543.16
2023-01-20T23:27:39.187Z,100541.63
2023-01-20T23:30:06.215Z,100548.81
2023-01-20T23:32:32.895Z,100552.03
2023-01-20T23:34:59.312Z,100551.91
2023-01-20T23:37:25.708Z,100556.41
2023-01-20T23:39:53.030Z,100554.31
2023-01-20T23:42:19.511Z,100552.19
2023-01-20T23:44:45.922Z,100565.56
2023-01-20T23:47:12.577Z,100570.72
2023-01-20T23:49:38.980Z,100566.16
2023-01-20T23:52:05.838Z,100562.25
2023-01-20T23:54:32.300Z,100562.41
2023-01-20T23:56:58.665Z,100569.09
2023-01-20T23:59:25.106Z,100569.50
